Nur fliegen ist schöner ....

Willkommen beim Flugservice Bautzen GmbH

Wir sind eine nach europäischen Richtlinien zugelassene Flugschule und lizenziertes Luftfahrtunternehmen. Bei uns können sie nicht nur Rundflüge über die Oberlausitz oder Sachsen buchen, sondern in unserer Flugschule selber das Fliegen erlernen. Erfahrene Fluglehrer stehen Ihnen dabei zur Seite.

Wir bieten Ihnen außerdem spezielle Flüge zur Vermessung oder Fotoflüge für Luftbildaufnahmen an. In Zusammenarbeit mit dem Fallschirmsportclub Dresden und dem Cottbuser Fallschirmsportclub setzen wir am Flugplatz Bautzen und Neuhausen Fallschirmspringer ab.
Schauen Sie sich in Ruhe bei uns um und wenn Sie Fragen haben oder weitere Informationen benötigen, scheuen Sie sich nicht Kontakt mit uns aufzunehmen.

Gutscheine für Rundflüge und Tandemsprünge können Sie ganz leicht auch online in unserem Shop erwerben.

Terminkalender

Letzter Monat Juli 2019 Nächster Monat
Mo Di Mi Do Fr Sa So
week 27 1 2 3 4 5 6 7
week 28 8 9 10 11 12 13 14
week 29 15 16 17 18 19 20 21
week 30 22 23 24 25 26 27 28
week 31 29 30 31

Flugwetterinfo

[Quelle: ADDS]
METAR
EDDC 181950Z 17003KT CAVOK 22/09 Q1012 NOSIG =
EDDC 181700Z 1818/1918 VRB03KT CAVOK BECMG 1821/1824 18005KT BECMG 1906/1909 25007KT
TAF
EDDC 181700Z 1818/1918 VRB03KT CAVOK BECMG 1821/1824 18005KT BECMG 1906/1909 25007KT =
SR / SS: 03:07 / 19:09 UTC (EDAB Flugplatz Bautzen 2019-07-18)

Öffnungszeiten

des Flugplatzes Bautzen erfahren Sie hier:

flugplatz bautzen logo
Flugservice Bautzen GmbH, Kornmarkt 34, 02625 Bautzen  Telefon: +49 (3591) 211105, Telefax: +49 (3591) 274512, E-Mail:  flugservice(at)fsbautzen.de